Time;durP1;ratioP1;P1;durP2;ratioP2;P2;SDS_P1;SDS_P2;PMS_P1;PMS_P2;Temp;Humidity;BMP_temperature;BMP_pressure;BME280_temperature;BME280_humidity;BME280_pressure;Samples;Min_cycle;Max_cycle;Signal;HPM_P1;HPM_P2
2021/12/09 00:00:15;;;;;;;43.20;23.30;;;;;;;-2.29;82.16;99702.97;1797675;79;20999;-72
2021/12/09 00:02:44;;;;;;;46.07;23.83;;;;;;;-2.29;82.23;99696.13;1797721;78;20975;-86
2021/12/09 00:05:16;;;;;;;44.33;25.17;;;;;;;-2.29;82.15;99696.13;1797623;79;21172;-71
2021/12/09 00:07:49;;;;;;;47.87;25.27;;;;;;;-2.27;82.05;99707.69;1798025;79;21050;-71
2021/12/09 00:10:14;;;;;;;47.43;24.30;;;;;;;-2.28;82.15;99709.80;1797937;79;21479;-72
2021/12/09 00:12:41;;;;;;;46.13;24.87;;;;;;;-2.28;82.12;99713.66;1798122;79;21006;-71
2021/12/09 00:15:08;;;;;;;44.27;24.20;;;;;;;-2.28;82.25;99709.80;1798005;79;21057;-72
2021/12/09 00:17:36;;;;;;;45.27;23.27;;;;;;;-2.27;82.13;99708.55;1798277;79;21122;-71
2021/12/09 00:20:05;;;;;;;47.93;23.40;;;;;;;-2.27;82.11;99707.26;1798053;79;20998;-74
2021/12/09 00:22:33;;;;;;;46.20;24.07;;;;;;;-2.27;82.12;99699.99;1798217;79;20991;-71
2021/12/09 00:25:00;;;;;;;46.27;24.87;;;;;;;-2.31;82.01;99688.83;1798296;79;20949;-71
2021/12/09 00:27:27;;;;;;;45.73;24.00;;;;;;;-2.30;81.97;99701.23;1798116;79;21037;-71
2021/12/09 00:29:54;;;;;;;42.87;23.23;;;;;;;-2.32;82.09;99691.41;1797743;79;21129;-71
2021/12/09 00:32:22;;;;;;;46.17;23.63;;;;;;;-2.31;82.21;99676.00;1798136;79;21014;-72
2021/12/09 00:34:51;;;;;;;50.17;25.17;;;;;;;-2.22;82.47;99668.75;1805680;78;20906;-72
2021/12/09 00:37:33;;;;;;;41.80;23.47;;;;;;;-2.19;82.24;99658.92;1814563;78;20990;-71
2021/12/09 00:39:52;;;;;;;48.43;24.33;;;;;;;-2.20;82.14;99658.50;1812109;78;21044;-72
2021/12/09 00:42:24;;;;;;;47.97;25.07;;;;;;;-2.20;82.07;99645.66;1814594;79;21602;-71
2021/12/09 00:44:53;;;;;;;48.30;25.90;;;;;;;-2.20;82.10;99650.36;1815190;78;21503;-82
2021/12/09 00:47:21;;;;;;;45.80;24.90;;;;;;;-2.19;82.04;99652.50;1814891;78;20962;-71
2021/12/09 00:49:49;;;;;;;48.63;23.90;;;;;;;-2.21;82.01;99654.23;1814933;79;21414;-73
2021/12/09 00:52:17;;;;;;;44.93;23.57;;;;;;;-2.26;81.93;99651.64;1814696;78;21290;-71
2021/12/09 00:54:46;;;;;;;46.33;24.73;;;;;;;-2.29;81.76;99653.77;1814932;79;21146;-71
2021/12/09 00:57:13;;;;;;;45.53;23.63;;;;;;;-2.35;81.86;99660.17;1814435;78;22020;-71
2021/12/09 00:59:40;;;;;;;51.37;26.20;;;;;;;-2.36;81.95;99664.85;1812967;78;20918;-71
2021/12/09 01:02:09;;;;;;;48.07;24.77;;;;;;;-2.37;81.99;99663.58;1814543;78;21001;-71
2021/12/09 01:04:37;;;;;;;42.93;23.73;;;;;;;-2.40;81.85;99659.73;1811933;78;21479;-71
2021/12/09 01:07:06;;;;;;;46.40;26.23;;;;;;;-2.43;81.88;99660.57;1814415;78;21105;-86
2021/12/09 01:09:33;;;;;;;49.37;24.97;;;;;;;-2.46;81.87;99664.41;1815035;79;21057;-78
2021/12/09 01:12:00;;;;;;;48.47;24.60;;;;;;;-2.47;81.99;99660.99;1814657;79;21001;-71
2021/12/09 01:14:28;;;;;;;46.70;23.47;;;;;;;-2.44;82.18;99663.97;1815068;78;21484;-71
2021/12/09 01:16:55;;;;;;;45.40;24.60;;;;;;;-2.43;82.09;99659.28;1814781;79;21013;-71
2021/12/09 01:19:22;;;;;;;45.53;23.93;;;;;;;-2.44;82.08;99661.41;1814803;79;21109;-88
2021/12/09 01:21:49;;;;;;;42.03;22.47;;;;;;;-2.45;82.04;99673.81;1814678;78;21013;-73
2021/12/09 01:24:16;;;;;;;48.00;23.93;;;;;;;-2.43;82.28;99668.70;1814867;79;21504;-70
2021/12/09 01:26:45;;;;;;;45.80;23.70;;;;;;;-2.41;82.22;99669.54;1814919;78;20978;-75
2021/12/09 01:29:17;;;;;;;47.87;25.90;;;;;;;-2.40;82.19;99661.86;1815042;78;21053;-71
2021/12/09 01:31:44;;;;;;;47.13;24.63;;;;;;;-2.36;82.34;99663.57;1814207;78;21131;-79
2021/12/09 01:34:10;;;;;;;42.13;23.87;;;;;;;-2.36;82.19;99667.42;1813450;78;20982;-71
2021/12/09 01:36:37;;;;;;;43.30;23.10;;;;;;;-2.38;82.14;99682.38;1797832;79;21018;-71
2021/12/09 01:39:08;;;;;;;47.83;23.97;;;;;;;-2.40;82.12;99686.23;1797634;79;21002;-71
2021/12/09 01:41:35;;;;;;;44.20;24.55;;;;;;;-2.43;81.97;99686.23;1797947;79;21015;-89
2021/12/09 01:44:02;;;;;;;48.33;23.97;;;;;;;-2.45;82.08;99683.22;1798041;79;21057;-71
2021/12/09 01:46:30;;;;;;;42.93;22.17;;;;;;;-2.43;82.26;99679.81;1797547;79;21006;-71
2021/12/09 01:48:57;;;;;;;45.47;22.53;;;;;;;-2.44;82.11;99672.95;1798051;79;21555;-71
2021/12/09 01:51:25;;;;;;;42.73;22.57;;;;;;;-2.46;82.05;99672.11;1797601;79;21512;-72
2021/12/09 01:53:53;;;;;;;44.50;23.33;;;;;;;-2.47;82.14;99669.09;1798520;79;21457;-72
2021/12/09 01:56:24;;;;;;;45.53;22.93;;;;;;;-2.48;82.19;99663.54;1797638;79;21171;-71
2021/12/09 01:58:59;;;;;;;43.02;23.35;;;;;;;-2.46;82.18;99661.84;1797941;79;21483;-71
2021/12/09 02:01:27;;;;;;;44.27;24.27;;;;;;;-2.42;82.51;99657.14;1797839;79;20956;-71
2021/12/09 02:03:55;;;;;;;44.20;23.60;;;;;;;-2.38;82.45;99656.72;1797813;79;21472;-71
2021/12/09 02:06:24;;;;;;;48.93;24.47;;;;;;;-2.34;82.39;99663.59;1797643;79;20932;-71
2021/12/09 02:08:52;;;;;;;48.67;23.67;;;;;;;-2.35;82.18;99665.73;1797713;79;21067;-71
2021/12/09 02:11:19;;;;;;;47.17;24.37;;;;;;;-2.38;82.27;99669.55;1797475;79;21002;-76
2021/12/09 02:13:51;;;;;;;44.13;23.67;;;;;;;-2.38;82.34;99669.14;1798098;79;20987;-71
2021/12/09 02:16:16;;;;;;;42.55;23.45;;;;;;;-2.37;82.29;99667.00;1797361;79;20991;-72
2021/12/09 02:18:46;;;;;;;48.37;24.80;;;;;;;-2.40;82.11;99679.83;1797606;79;21049;-72
2021/12/09 02:21:27;;;;;;;46.03;24.33;;;;;;;-2.43;82.13;99675.97;1797703;79;21120;-72
2021/12/09 02:24:02;;;;;;;48.07;24.80;;;;;;;-2.46;82.14;99678.52;1797745;79;20978;-72
2021/12/09 02:26:34;;;;;;;47.47;24.90;;;;;;;-2.46;82.12;99679.81;1798033;79;21042;-71
2021/12/09 02:29:05;;;;;;;42.80;23.23;;;;;;;-2.48;82.27;99681.50;1797601;79;21456;-72
2021/12/09 02:31:33;;;;;;;45.43;24.47;;;;;;;-2.45;82.35;99685.80;1797857;79;21151;-80
2021/12/09 02:34:01;;;;;;;45.37;23.27;;;;;;;-2.41;82.47;99684.54;1797607;79;21116;-72
2021/12/09 02:36:36;;;;;;;43.83;23.67;;;;;;;-2.38;82.38;99671.72;1807530;77;21447;-71
2021/12/09 02:39:01;;;;;;;47.27;24.80;;;;;;;-2.41;82.22;99671.70;1809010;78;20994;-72
2021/12/09 02:41:28;;;;;;;48.50;24.43;;;;;;;-2.39;82.38;99666.56;1809295;78;20998;-77
2021/12/09 02:44:03;;;;;;;49.30;24.43;;;;;;;-2.39;82.47;99667.41;1808933;79;21017;-74
2021/12/09 02:46:37;;;;;;;43.70;23.03;;;;;;;-2.35;82.39;99672.16;1809212;79;21052;-71
2021/12/09 02:49:09;;;;;;;47.33;24.97;;;;;;;-2.39;82.23;99678.11;1809281;79;20990;-71
2021/12/09 02:51:36;;;;;;;45.60;25.27;;;;;;;-2.32;82.62;99670.88;1808996;78;21049;-72
2021/12/09 02:54:08;;;;;;;49.73;24.27;;;;;;;-2.30;82.41;99667.47;1808879;79;21011;-74
2021/12/09 02:56:35;;;;;;;47.00;24.87;;;;;;;-2.31;82.25;99668.30;1809255;79;21515;-71
2021/12/09 02:59:04;;;;;;;51.07;25.00;;;;;;;-2.32;82.21;99660.18;1803671;79;21959;-71
2021/12/09 03:01:36;;;;;;;49.03;25.27;;;;;;;-2.33;82.22;99662.72;1779519;79;20922;-88
2021/12/09 03:04:05;;;;;;;48.50;23.03;;;;;;;-2.34;82.27;99659.31;1777775;79;21002;-90
2021/12/09 03:06:38;;;;;;;49.23;26.33;;;;;;;-2.31;82.46;99670.02;1777268;79;20986;-71
2021/12/09 03:09:13;;;;;;;56.97;26.20;;;;;;;-2.25;82.55;99664.89;1777606;79;21492;-85
2021/12/09 03:11:43;;;;;;;48.17;25.63;;;;;;;-2.24;82.42;99673.05;1777253;80;21131;-71
2021/12/09 03:14:11;;;;;;;47.98;26.62;;;;;;;-2.22;82.51;99668.75;1777758;79;20975;-71
2021/12/09 03:16:41;;;;;;;51.43;25.43;;;;;;;-2.19;82.42;99666.22;1777471;80;21965;-83
2021/12/09 03:19:09;;;;;;;53.00;26.00;;;;;;;-2.18;82.52;99662.78;1777922;80;21037;-72
2021/12/09 03:21:41;;;;;;;50.13;25.23;;;;;;;-2.12;82.54;99670.93;1776912;80;21477;-72
2021/12/09 03:24:13;;;;;;;51.97;25.53;;;;;;;-2.13;82.37;99669.23;1777567;80;21251;-71
2021/12/09 03:26:48;;;;;;;48.70;25.17;;;;;;;-2.14;82.35;99672.19;1777721;80;21433;-88
2021/12/09 03:29:17;;;;;;;53.23;25.07;;;;;;;-2.14;82.43;99673.48;1777487;80;20963;-76
2021/12/09 03:31:48;;;;;;;46.07;23.83;;;;;;;-2.06;82.60;99673.50;1777144;80;21460;-71
2021/12/09 03:34:18;;;;;;;57.93;27.70;;;;;;;-2.05;82.40;99667.11;1777495;80;20967;-73
2021/12/09 03:36:48;;;;;;;51.97;26.97;;;;;;;-2.04;82.38;99664.10;1777012;79;21114;-86
2021/12/09 03:39:19;;;;;;;49.60;25.77;;;;;;;-2.04;82.28;99662.82;1777475;80;20957;-71
2021/12/09 03:41:51;;;;;;;51.27;26.27;;;;;;;-2.05;82.29;99662.37;1777269;79;21482;-72
2021/12/09 03:44:19;;;;;;;53.70;27.70;;;;;;;-2.04;82.36;99661.53;1777559;79;21014;-71
2021/12/09 03:46:49;;;;;;;53.43;26.70;;;;;;;-2.02;82.33;99668.39;1777082;79;20979;-71
2021/12/09 03:49:17;;;;;;;56.15;28.42;;;;;;;-2.03;82.26;99670.51;1777815;80;21107;-71
2021/12/09 03:51:44;;;;;;;52.13;26.67;;;;;;;-2.03;82.13;99665.80;1777140;79;20955;-72
2021/12/09 03:54:12;;;;;;;57.73;27.73;;;;;;;-2.06;82.02;99665.37;1777463;79;20990;-85
2021/12/09 03:56:40;;;;;;;54.30;25.73;;;;;;;-2.10;82.05;99661.53;1777198;79;20986;-71
2021/12/09 03:59:10;;;;;;;49.87;25.57;;;;;;;-2.08;82.14;99653.38;1777342;80;21009;-71
2021/12/09 04:01:39;;;;;;;51.58;25.97;;;;;;;-2.03;82.44;99640.98;1777290;79;21511;-71
2021/12/09 04:04:08;;;;;;;52.73;25.90;;;;;;;-1.99;82.25;99639.73;1777599;79;21009;-71
2021/12/09 04:06:36;;;;;;;51.43;26.03;;;;;;;-2.00;82.25;99631.58;1777226;80;21034;-71
2021/12/09 04:09:07;;;;;;;48.43;25.50;;;;;;;-1.98;82.31;99633.72;1777240;80;21021;-72
2021/12/09 04:11:34;;;;;;;43.70;24.20;;;;;;;-1.95;82.30;99637.58;1777219;79;21017;-83
2021/12/09 04:14:03;;;;;;;52.70;25.90;;;;;;;-1.92;82.20;99646.57;1777299;80;22279;-71
2021/12/09 04:16:30;;;;;;;48.30;26.57;;;;;;;-1.96;82.00;99650.00;1777121;79;20852;-71
2021/12/09 04:18:58;;;;;;;45.93;23.97;;;;;;;-1.96;82.18;99650.85;1777141;79;21132;-72
2021/12/09 04:21:26;;;;;;;48.33;24.97;;;;;;;-1.89;82.55;99651.27;1777155;80;21010;-71
2021/12/09 04:23:53;;;;;;;51.20;26.50;;;;;;;-1.86;82.21;99654.27;1777015;80;21007;-71
2021/12/09 04:26:21;;;;;;;48.13;24.60;;;;;;;-1.85;82.10;99667.56;1777189;80;21117;-71
2021/12/09 04:28:48;;;;;;;50.97;25.40;;;;;;;-1.92;81.91;99661.98;1776903;80;21427;-71
2021/12/09 04:31:16;;;;;;;50.27;25.90;;;;;;;-1.98;81.74;99660.25;1776909;80;21072;-71
2021/12/09 04:33:44;;;;;;;46.03;24.93;;;;;;;-2.03;81.86;99675.64;1777271;80;20967;-71
2021/12/09 04:36:11;;;;;;;52.60;25.57;;;;;;;-2.03;81.95;99673.08;1777039;80;20982;-74
2021/12/09 04:38:38;;;;;;;48.83;24.87;;;;;;;-2.00;82.03;99676.52;1777329;80;21102;-73
2021/12/09 04:41:06;;;;;;;47.67;23.90;;;;;;;-1.97;82.01;99676.52;1776911;79;21456;-71
2021/12/09 04:43:35;;;;;;;50.63;24.70;;;;;;;-2.02;82.02;99669.67;1776967;80;21579;-74
2021/12/09 04:46:03;;;;;;;47.43;24.97;;;;;;;-2.01;81.99;99667.95;1777204;80;21420;-71
2021/12/09 04:48:30;;;;;;;48.63;25.57;;;;;;;-2.02;81.98;99658.55;1777145;79;21022;-71
2021/12/09 04:50:57;;;;;;;46.10;24.80;;;;;;;-2.05;81.87;99662.37;1808027;79;21135;-76
2021/12/09 04:53:24;;;;;;;48.60;24.80;;;;;;;-2.05;82.07;99659.41;1808911;79;20975;-71
2021/12/09 04:55:51;;;;;;;48.73;25.03;;;;;;;-2.07;81.93;99654.68;1808899;78;21401;-71
2021/12/09 04:58:19;;;;;;;51.77;25.73;;;;;;;-2.06;82.13;99658.95;1808935;78;21026;-71
2021/12/09 05:00:48;;;;;;;46.33;24.67;;;;;;;-2.05;82.03;99665.82;1809118;79;20979;-90
2021/12/09 05:03:15;;;;;;;51.43;27.10;;;;;;;-2.08;81.94;99670.07;1808973;78;21128;-71
2021/12/09 05:05:47;;;;;;;47.47;25.40;;;;;;;-2.06;82.14;99673.07;1808763;79;21045;-90
2021/12/09 05:08:18;;;;;;;50.93;26.33;;;;;;;-2.04;82.07;99666.67;1809079;78;21428;-71
2021/12/09 05:10:58;;;;;;;41.97;23.17;;;;;;;-2.03;82.13;99660.67;1809224;79;21019;-72
2021/12/09 05:13:20;;;;;;;48.43;24.30;;;;;;;-2.00;82.14;99659.39;1808403;78;20983;-71
2021/12/09 05:15:47;;;;;;;48.43;24.00;;;;;;;-1.97;82.38;99652.13;1809150;78;21104;-71
2021/12/09 05:18:17;;;;;;;50.53;26.93;;;;;;;-1.92;82.27;99677.39;1808813;78;20955;-71
2021/12/09 05:20:45;;;;;;;48.30;25.40;;;;;;;-1.92;82.08;99682.52;1809315;79;21559;-71
2021/12/09 05:23:12;;;;;;;50.73;26.27;;;;;;;-1.96;81.91;99675.69;1808952;79;21449;-71
2021/12/09 05:25:40;;;;;;;48.47;25.40;;;;;;;-1.99;81.96;99678.25;1809288;78;21007;-71
2021/12/09 05:28:09;;;;;;;50.83;25.20;;;;;;;-1.98;81.99;99667.11;1808799;78;21120;-72
2021/12/09 05:32:07;;;;;;;51.20;25.93;;;;;;;-1.97;82.03;99673.95;1809376;78;20991;-71
2021/12/09 05:33:07;;;;;;;50.17;25.33;;;;;;;-1.96;82.06;99675.25;1807590;79;20982;-72
2021/12/09 05:35:35;;;;;;;46.90;25.67;;;;;;;-1.95;82.03;99683.38;1809319;79;20982;-71
2021/12/09 05:38:02;;;;;;;52.53;25.97;;;;;;;-1.92;82.10;99679.52;1808974;79;20955;-71
2021/12/09 05:40:29;;;;;;;55.20;28.00;;;;;;;-1.91;82.00;99681.66;1809349;78;21101;-71
2021/12/09 05:42:56;;;;;;;53.40;27.30;;;;;;;-1.92;81.95;99691.52;1808878;78;20975;-71
2021/12/09 05:45:23;;;;;;;51.73;27.07;;;;;;;-1.96;81.89;99694.52;1809348;79;21011;-71
2021/12/09 05:47:51;;;;;;;52.70;27.30;;;;;;;-1.94;81.94;99688.08;1808896;79;20998;-73
2021/12/09 05:50:17;;;;;;;52.70;27.27;;;;;;;-1.96;81.97;99688.52;1809228;78;20990;-72
2021/12/09 05:52:45;;;;;;;50.43;26.00;;;;;;;-1.97;81.96;99685.50;1808905;78;21163;-75
2021/12/09 05:55:12;;;;;;;49.83;25.00;;;;;;;-1.93;82.39;99675.69;1808737;79;20955;-71
2021/12/09 05:57:39;;;;;;;46.47;25.20;;;;;;;-1.87;82.34;99684.25;1809201;78;21089;-77
2021/12/09 06:00:08;;;;;;;52.60;27.90;;;;;;;-1.82;82.31;99684.27;1809154;78;21019;-71
2021/12/09 06:02:37;;;;;;;50.83;26.53;;;;;;;-1.80;82.21;99682.13;1808629;78;21053;-72
2021/12/09 06:05:05;;;;;;;51.57;28.17;;;;;;;-1.81;82.09;99687.25;1809345;78;21101;-72
2021/12/09 06:07:32;;;;;;;55.13;26.50;;;;;;;-1.81;82.04;99676.55;1809195;78;20955;-72
2021/12/09 06:10:02;;;;;;;51.87;26.30;;;;;;;-1.82;82.12;99673.99;1808986;78;21053;-72
2021/12/09 06:12:28;;;;;;;53.93;27.53;;;;;;;-1.77;82.26;99677.83;1809193;78;21457;-72
2021/12/09 06:14:55;;;;;;;52.27;25.93;;;;;;;-1.72;82.29;99679.98;1809129;79;20994;-72
2021/12/09 06:17:23;;;;;;;50.80;27.00;;;;;;;-1.73;82.07;99684.70;1808828;78;21137;-72
2021/12/09 06:19:50;;;;;;;55.57;26.57;;;;;;;-1.74;82.07;99686.42;1809043;78;21484;-71
2021/12/09 06:22:17;;;;;;;52.40;25.00;;;;;;;-1.74;82.01;99676.14;1809362;78;21029;-72
2021/12/09 06:24:45;;;;;;;48.83;25.13;;;;;;;-1.74;82.08;99684.28;1808804;79;21461;-71
2021/12/09 06:27:13;;;;;;;50.27;26.07;;;;;;;-1.74;82.01;99673.57;1809104;78;21289;-72
2021/12/09 06:29:41;;;;;;;58.37;28.40;;;;;;;-1.75;82.23;99674.41;1808976;79;21103;-73
2021/12/09 06:32:09;;;;;;;50.17;27.17;;;;;;;-1.73;82.10;99676.56;1808872;79;20979;-85
2021/12/09 06:34:36;;;;;;;53.30;27.90;;;;;;;-1.76;82.09;99669.28;1809349;79;20956;-72
2021/12/09 06:37:03;;;;;;;50.63;25.63;;;;;;;-1.75;82.20;99671.84;1794519;78;21007;-72
2021/12/09 06:39:30;;;;;;;54.73;28.57;;;;;;;-1.65;82.68;99676.58;1786111;79;20988;-72
2021/12/09 06:41:57;;;;;;;54.73;26.57;;;;;;;-1.58;82.43;99667.59;1786455;79;21927;-72
2021/12/09 06:44:25;;;;;;;55.73;26.17;;;;;;;-1.61;82.36;99663.73;1786283;80;22015;-72
2021/12/09 06:46:55;;;;;;;50.83;27.27;;;;;;;-1.59;82.53;99667.14;1786030;79;20975;-72
2021/12/09 06:49:21;;;;;;;57.90;27.27;;;;;;;-1.56;82.38;99679.14;1786343;80;21022;-71
2021/12/09 06:51:49;;;;;;;51.10;26.67;;;;;;;-1.55;82.27;99688.98;1786420;79;20991;-72
2021/12/09 06:54:17;;;;;;;52.40;27.83;;;;;;;-1.57;82.19;99687.72;1785881;80;21132;-72
2021/12/09 06:56:44;;;;;;;67.80;35.40;;;;;;;-1.58;82.18;99695.86;1786344;80;21014;-85
2021/12/09 06:59:13;;;;;;;73.83;39.90;;;;;;;-1.59;82.22;99705.69;1786255;80;20999;-78
2021/12/09 07:01:41;;;;;;;67.90;35.27;;;;;;;-1.56;82.24;99711.27;1786243;80;21541;-80
2021/12/09 07:04:08;;;;;;;58.87;34.17;;;;;;;-1.55;82.11;99719.83;1786395;80;21579;-72
2021/12/09 07:06:38;;;;;;;55.93;31.70;;;;;;;-1.52;82.31;99722.39;1786194;80;21160;-72
2021/12/09 07:09:05;;;;;;;48.90;28.47;;;;;;;-1.48;82.46;99731.41;1785949;79;21011;-72
2021/12/09 07:11:33;;;;;;;53.77;29.43;;;;;;;-1.44;82.38;99725.83;1786282;80;20995;-72
2021/12/09 07:14:01;;;;;;;52.27;28.87;;;;;;;-1.42;82.32;99725.41;1786610;79;21066;-78
2021/12/09 07:16:29;;;;;;;50.60;26.73;;;;;;;-1.40;82.34;99727.13;1786076;80;21002;-74
2021/12/09 07:18:58;;;;;;;56.37;28.10;;;;;;;-1.41;82.23;99719.00;1786484;79;21792;-75
2021/12/09 07:21:25;;;;;;;51.63;27.67;;;;;;;-1.39;82.30;99723.69;1786230;80;20991;-78
2021/12/09 07:23:52;;;;;;;51.23;26.90;;;;;;;-1.39;82.20;99716.41;1786561;79;21019;-75
2021/12/09 07:26:19;;;;;;;47.70;26.10;;;;;;;-1.43;82.05;99715.56;1786376;79;20919;-74
2021/12/09 07:28:46;;;;;;;56.67;27.93;;;;;;;-1.43;82.27;99710.86;1786626;79;20971;-78
2021/12/09 07:31:15;;;;;;;54.03;28.50;;;;;;;-1.43;82.17;99727.56;1786044;79;22036;-73
2021/12/09 07:33:44;;;;;;;53.63;27.17;;;;;;;-1.44;82.36;99730.97;1786120;80;20923;-74
2021/12/09 07:36:11;;;;;;;57.50;29.00;;;;;;;-1.47;82.10;99735.71;1788396;79;20999;-74
2021/12/09 07:38:38;;;;;;;50.77;28.20;;;;;;;-1.47;82.47;99745.99;1814480;79;20998;-77
2021/12/09 07:41:05;;;;;;;55.57;29.13;;;;;;;-1.44;82.50;99738.69;1814316;78;21033;-75
2021/12/09 07:43:32;;;;;;;53.47;28.37;;;;;;;-1.39;82.62;99726.27;1814384;79;21143;-75
2021/12/09 07:46:00;;;;;;;55.47;29.70;;;;;;;-1.36;82.73;99727.98;1814518;79;21514;-76
2021/12/09 07:48:27;;;;;;;50.77;28.40;;;;;;;-1.28;82.78;99699.27;1814405;79;21006;-78
2021/12/09 07:50:54;;;;;;;49.90;26.13;;;;;;;-1.26;82.64;99717.28;1814718;78;20975;-76
2021/12/09 07:53:23;;;;;;;51.87;27.23;;;;;;;-1.23;82.78;99689.84;1814332;78;21053;-75
2021/12/09 07:55:53;;;;;;;51.83;27.80;;;;;;;-1.16;82.96;99680.00;1814313;79;21960;-76
2021/12/09 07:58:21;;;;;;;53.55;27.42;;;;;;;-1.05;82.86;99682.96;1814604;79;21030;-76
2021/12/09 08:00:49;;;;;;;63.97;31.77;;;;;;;-1.11;82.22;99715.98;1814664;78;21408;-83
2021/12/09 08:03:17;;;;;;;50.27;26.80;;;;;;;-1.13;82.43;99716.00;1814276;78;21029;-94
2021/12/09 08:05:47;;;;;;;56.30;28.07;;;;;;;-1.09;82.43;99703.98;1814629;79;21057;-74
2021/12/09 08:08:15;;;;;;;63.30;32.97;;;;;;;-1.12;82.17;99718.13;1814686;78;21080;-74
2021/12/09 08:10:45;;;;;;;57.40;28.80;;;;;;;-1.12;82.41;99712.55;1792062;79;21520;-77
2021/12/09 08:13:13;;;;;;;56.33;29.90;;;;;;;-1.10;82.25;99702.72;1814573;78;20970;-78
2021/12/09 08:15:45;;;;;;;57.53;30.27;;;;;;;-1.13;82.31;99713.86;1805007;79;21415;-78
2021/12/09 08:20:45;;;;;;;56.30;30.00;;;;;;;-1.07;82.15;99715.13;1716154;81;21010;-77
2021/12/09 08:23:12;;;;;;;59.17;29.43;;;;;;;-1.11;82.10;99723.69;1741980;81;20873;-77
2021/12/09 08:25:40;;;;;;;59.23;30.00;;;;;;;-1.06;82.33;99725.84;1788139;79;21014;-78
2021/12/09 08:28:07;;;;;;;62.23;32.43;;;;;;;-1.02;82.35;99725.42;1734071;81;21030;-80
2021/12/09 08:30:36;;;;;;;65.83;33.07;;;;;;;-1.00;82.50;99740.41;1726529;80;21276;-78
2021/12/09 08:33:05;;;;;;;61.17;30.67;;;;;;;-0.91;82.70;99736.13;1801310;79;21122;-81
2021/12/09 08:35:33;;;;;;;59.13;29.63;;;;;;;-0.82;82.34;99720.25;1808236;79;21016;-82
2021/12/09 08:38:04;;;;;;;73.83;39.67;;;;;;;-0.74;82.60;99727.09;1801336;77;21005;-78
2021/12/09 08:40:32;;;;;;;56.33;29.03;;;;;;;-0.68;82.36;99725.78;1733959;81;21047;-79
2021/12/09 08:43:00;;;;;;;59.80;29.57;;;;;;;-0.65;82.13;99729.22;1779964;79;21029;-77
2021/12/09 08:45:29;;;;;;;53.87;27.73;;;;;;;-0.64;82.09;99723.20;1781227;79;21126;-77
2021/12/09 08:47:56;;;;;;;55.20;28.87;;;;;;;-0.62;82.08;99719.77;1718514;81;21512;-77
2021/12/09 08:50:25;;;;;;;57.80;30.73;;;;;;;-0.58;82.05;99724.06;1721336;82;21030;-79
2021/12/09 08:52:53;;;;;;;58.57;29.77;;;;;;;-0.53;82.05;99717.59;1784827;79;21075;-85
2021/12/09 08:55:22;;;;;;;54.10;28.73;;;;;;;-0.50;82.10;99716.29;1806256;79;21535;-86
2021/12/09 08:57:50;;;;;;;56.53;30.03;;;;;;;-0.40;82.24;99715.41;1784323;79;21057;-75
2021/12/09 09:00:18;;;;;;;65.20;32.97;;;;;;;-0.37;81.78;99719.69;1789924;79;21053;-78
2021/12/09 09:02:50;;;;;;;62.60;32.50;;;;;;;-0.41;81.59;99716.28;1805174;79;21065;-80
2021/12/09 09:05:17;;;;;;;54.60;27.93;;;;;;;-0.42;81.49;99722.70;1794737;79;21009;-75
2021/12/09 09:07:48;;;;;;;57.03;29.80;;;;;;;-0.44;81.60;99716.30;1805813;79;20982;-78
2021/12/09 09:10:20;;;;;;;52.77;28.17;;;;;;;-0.42;81.47;99711.13;1806242;78;22109;-80
2021/12/09 09:12:47;;;;;;;55.17;28.90;;;;;;;-0.43;81.44;99717.14;1813948;79;20925;-79
2021/12/09 12:54:37;;;;;;;76.13;39.37;;;;;;;1.03;79.80;99633.22;1747699;81;20939;-76
2021/12/09 12:57:00;;;;;;;89.50;45.57;;;;;;;1.07;79.97;99634.89;1710015;83;21494;-76
2021/12/09 12:59:37;;;;;;;69.73;37.17;;;;;;;1.12;79.88;99634.41;1711467;83;21036;-81
2021/12/09 13:06:07;;;;;;;65.67;33.80;;;;;;;1.08;79.58;99638.75;1709261;82;21485;-78
2021/12/09 13:10:46;;;;;;;63.50;33.23;;;;;;;0.98;79.48;99637.58;1778617;79;21680;-82
2021/12/09 13:16:20;;;;;;;62.53;31.87;;;;;;;0.88;79.41;99627.77;1764958;79;21058;-85
2021/12/09 13:19:14;;;;;;;70.07;36.80;;;;;;;0.83;79.41;99625.25;1747849;80;22449;-82
2021/12/09 13:21:47;;;;;;;80.10;41.17;;;;;;;0.79;79.41;99626.14;1747818;80;21020;-81
2021/12/09 13:30:39;;;;;;;65.27;34.10;;;;;;;0.72;79.74;99633.94;1711032;81;21471;-83
2021/12/09 13:36:12;;;;;;;71.03;39.53;;;;;;;0.83;80.23;99632.11;1753460;80;21007;-81
2021/12/09 13:49:53;;;;;;;64.80;32.20;;;;;;;0.86;79.43;99602.00;1761108;79;21437;-77
2021/12/09 13:55:10;;;;;;;71.70;37.43;;;;;;;0.83;80.11;99598.58;1647394;85;21099;-75
2021/12/09 13:57:51;;;;;;;71.00;36.17;;;;;;;0.88;79.90;99609.27;1770790;79;21059;-79
2021/12/09 14:00:39;;;;;;;78.47;40.10;;;;;;;0.82;79.63;99618.80;1753630;79;21412;-77
2021/12/09 14:03:13;;;;;;;63.63;32.73;;;;;;;0.78;79.61;99614.56;1775062;79;21083;-80
2021/12/09 14:06:04;;;;;;;70.33;35.63;;;;;;;0.74;79.67;99619.31;1778511;79;20980;-79
2021/12/09 14:08:51;;;;;;;66.30;33.90;;;;;;;0.70;79.59;99626.67;1778737;79;21421;-78
2021/12/09 14:11:31;;;;;;;62.83;32.90;;;;;;;0.70;79.87;99624.94;1775134;79;21047;-76
2021/12/09 14:14:13;;;;;;;71.92;34.23;;;;;;;0.71;79.86;99629.66;1778759;79;21124;-77
2021/12/09 14:16:50;;;;;;;69.93;32.90;;;;;;;0.76;80.29;99636.93;1778332;80;21008;-76
2021/12/09 14:21:40;;;;;;;64.10;31.90;;;;;;;0.84;80.15;99643.72;1778566;80;21011;-76
2021/12/09 14:24:13;;;;;;;62.37;31.33;;;;;;;0.89;80.38;99639.81;1778736;80;21051;-79
2021/12/09 14:26:44;;;;;;;63.37;31.53;;;;;;;0.98;80.36;99632.41;1778928;80;21114;-79
2021/12/09 14:29:13;;;;;;;69.50;34.80;;;;;;;0.99;80.08;99636.25;1778145;80;21012;-78
2021/12/09 14:31:53;;;;;;;72.27;35.53;;;;;;;0.97;79.77;99647.05;1778928;80;21266;-78
2021/12/09 14:34:23;;;;;;;69.75;34.25;;;;;;;0.87;79.63;99645.42;1754474;79;21579;-78
2021/12/09 14:36:52;;;;;;;68.75;33.95;;;;;;;0.83;79.89;99631.70;1763916;80;21216;-77
2021/12/09 14:39:21;;;;;;;60.50;31.37;;;;;;;0.87;79.88;99641.11;1747476;80;21114;-78
2021/12/09 14:42:09;;;;;;;62.20;33.10;;;;;;;0.87;79.96;99646.70;1748041;82;20896;-78
2021/12/09 14:44:38;;;;;;;66.87;33.30;;;;;;;0.93;80.20;99644.06;1747177;82;21734;-79
2021/12/09 14:47:16;;;;;;;72.73;34.60;;;;;;;0.97;80.18;99638.02;1747938;82;21028;-82
2021/12/09 14:49:47;;;;;;;71.87;34.73;;;;;;;0.95;79.61;99636.32;1749110;80;21019;-75
2021/12/09 14:52:36;;;;;;;70.40;34.87;;;;;;;0.82;79.47;99643.31;1747594;81;21932;-79
2021/12/09 14:55:26;;;;;;;73.00;34.53;;;;;;;0.78;79.62;99633.91;1747765;82;21067;-78
2021/12/09 14:58:13;;;;;;;57.58;30.75;;;;;;;0.72;79.58;99638.69;1748239;82;21007;-78
2021/12/09 15:00:55;;;;;;;64.00;31.53;;;;;;;0.72;79.84;99634.82;1747804;82;21462;-78
2021/12/09 15:03:51;;;;;;;70.25;32.63;;;;;;;0.75;79.96;99630.04;1748082;81;21488;-79
2021/12/09 15:06:25;;;;;;;72.17;35.73;;;;;;;0.80;80.21;99633.44;1745887;82;21074;-77
2021/12/09 15:08:58;;;;;;;65.80;34.83;;;;;;;0.80;79.75;99634.72;1747976;81;21352;-77
2021/12/09 15:11:24;;;;;;;69.40;34.97;;;;;;;0.67;79.53;99636.58;1747054;82;21421;-77
2021/12/09 15:13:54;;;;;;;74.97;36.33;;;;;;;0.61;79.70;99629.76;1747996;82;21016;-78
2021/12/09 15:16:25;;;;;;;64.97;34.17;;;;;;;0.58;79.63;99639.22;1747783;82;21015;-76
2021/12/09 15:18:53;;;;;;;66.70;34.15;;;;;;;0.52;79.68;99638.84;1748166;82;21110;-77
2021/12/09 15:21:24;;;;;;;70.30;35.63;;;;;;;0.55;80.08;99637.52;1747751;82;21472;-78
2021/12/09 15:23:55;;;;;;;68.87;33.93;;;;;;;0.61;80.25;99634.91;1748098;82;21058;-77
2021/12/09 15:26:32;;;;;;;69.70;34.17;;;;;;;0.62;80.34;99630.16;1747756;82;21019;-85
2021/12/09 15:29:16;;;;;;;71.57;35.27;;;;;;;0.67;80.07;99627.55;1748052;82;21038;-77
2021/12/09 15:31:48;;;;;;;69.20;33.07;;;;;;;0.62;79.95;99628.03;1747897;82;21759;-76
2021/12/09 15:34:23;;;;;;;71.50;34.67;;;;;;;0.61;80.05;99625.89;1745432;81;21021;-76
2021/12/09 15:37:06;;;;;;;67.20;32.17;;;;;;;0.61;79.97;99623.31;1747819;82;21477;-76
2021/12/09 15:39:36;;;;;;;67.93;33.40;;;;;;;0.62;80.15;99621.14;1755265;79;21011;-77
2021/12/09 15:42:14;;;;;;;63.98;32.67;;;;;;;0.66;80.09;99620.23;1751930;79;21007;-77
2021/12/09 15:44:49;;;;;;;70.50;33.90;;;;;;;0.68;79.98;99620.66;1778477;80;21140;-78
2021/12/09 15:47:25;;;;;;;67.83;33.80;;;;;;;0.67;79.99;99623.69;1778480;80;21425;-77